sensor_id;sensor_type;location;lat;lon;timestamp;temperature;humidity
20594;DHT22;10455;48.732;10.266;2024-02-15T00:03:37;9.90;99.90
20594;DHT22;10455;48.732;10.266;2024-02-15T00:08:40;10.00;99.90
20594;DHT22;10455;48.732;10.266;2024-02-15T00:13:42;10.00;99.90
20594;DHT22;10455;48.732;10.266;2024-02-15T00:18:44;10.10;99.90
20594;DHT22;10455;48.732;10.266;2024-02-15T00:23:48;10.20;99.90
20594;DHT22;10455;48.732;10.266;2024-02-15T00:28:50;10.20;99.90
20594;DHT22;10455;48.732;10.266;2024-02-15T00:33:52;10.30;99.90
20594;DHT22;10455;48.732;10.266;2024-02-15T00:38:55;10.10;99.90
20594;DHT22;10455;48.732;10.266;2024-02-15T00:43:58;9.80;99.90
20594;DHT22;10455;48.732;10.266;2024-02-15T00:48:59;9.70;99.90
20594;DHT22;10455;48.732;10.266;2024-02-15T00:54:03;9.70;99.90
20594;DHT22;10455;48.732;10.266;2024-02-15T00:59:05;9.60;99.90
20594;DHT22;10455;48.732;10.266;2024-02-15T01:04:09;9.60;99.90
20594;DHT22;10455;48.732;10.266;2024-02-15T01:09:12;9.50;99.90
20594;DHT22;10455;48.732;10.266;2024-02-15T01:14:14;9.40;99.90
20594;DHT22;10455;48.732;10.266;2024-02-15T01:19:16;9.20;99.90
20594;DHT22;10455;48.732;10.266;2024-02-15T01:24:20;9.30;99.90
20594;DHT22;10455;48.732;10.266;2024-02-15T01:29:22;9.30;99.90
20594;DHT22;10455;48.732;10.266;2024-02-15T01:34:26;9.30;99.90
20594;DHT22;10455;48.732;10.266;2024-02-15T01:39:29;9.30;99.90
20594;DHT22;10455;48.732;10.266;2024-02-15T01:44:31;9.30;99.90
20594;DHT22;10455;48.732;10.266;2024-02-15T01:49:33;9.30;99.90
20594;DHT22;10455;48.732;10.266;2024-02-15T01:54:36;9.40;99.90
20594;DHT22;10455;48.732;10.266;2024-02-15T01:59:39;9.40;99.90
20594;DHT22;10455;48.732;10.266;2024-02-15T02:04:42;9.40;99.90
20594;DHT22;10455;48.732;10.266;2024-02-15T02:09:46;9.50;99.90
20594;DHT22;10455;48.732;10.266;2024-02-15T02:14:49;9.60;99.90
20594;DHT22;10455;48.732;10.266;2024-02-15T02:19:51;9.80;99.90
20594;DHT22;10455;48.732;10.266;2024-02-15T02:25:05;9.80;99.90
20594;DHT22;10455;48.732;10.266;2024-02-15T02:30:13;9.80;99.90
20594;DHT22;10455;48.732;10.266;2024-02-15T02:35:18;9.80;99.90
20594;DHT22;10455;48.732;10.266;2024-02-15T02:40:22;9.80;99.90
20594;DHT22;10455;48.732;10.266;2024-02-15T02:45:24;9.70;99.90
20594;DHT22;10455;48.732;10.266;2024-02-15T02:50:26;9.60;99.90
20594;DHT22;10455;48.732;10.266;2024-02-15T02:55:30;9.50;99.90
20594;DHT22;10455;48.732;10.266;2024-02-15T03:00:31;9.60;99.90
20594;DHT22;10455;48.732;10.266;2024-02-15T03:05:33;9.50;99.90
20594;DHT22;10455;48.732;10.266;2024-02-15T03:10:36;9.40;99.90
20594;DHT22;10455;48.732;10.266;2024-02-15T03:15:38;9.40;99.90
20594;DHT22;10455;48.732;10.266;2024-02-15T03:20:42;9.30;99.90
20594;DHT22;10455;48.732;10.266;2024-02-15T03:25:45;9.20;99.90
20594;DHT22;10455;48.732;10.266;2024-02-15T03:30:47;9.20;99.90
20594;DHT22;10455;48.732;10.266;2024-02-15T03:35:50;9.10;99.90
20594;DHT22;10455;48.732;10.266;2024-02-15T03:40:54;8.90;99.90
20594;DHT22;10455;48.732;10.266;2024-02-15T03:45:56;8.60;99.90
20594;DHT22;10455;48.732;10.266;2024-02-15T03:50:58;8.40;99.90
20594;DHT22;10455;48.732;10.266;2024-02-15T03:56:01;8.20;99.90
20594;DHT22;10455;48.732;10.266;2024-02-15T04:01:04;8.10;99.90
20594;DHT22;10455;48.732;10.266;2024-02-15T04:06:07;8.00;99.90
20594;DHT22;10455;48.732;10.266;2024-02-15T04:11:11;7.90;99.90
20594;DHT22;10455;48.732;10.266;2024-02-15T04:16:12;7.80;99.90
20594;DHT22;10455;48.732;10.266;2024-02-15T04:21:15;8.00;99.90
20594;DHT22;10455;48.732;10.266;2024-02-15T04:26:19;8.00;99.90
20594;DHT22;10455;48.732;10.266;2024-02-15T04:31:21;7.90;99.90
20594;DHT22;10455;48.732;10.266;2024-02-15T04:36:26;7.70;99.90
20594;DHT22;10455;48.732;10.266;2024-02-15T04:41:35;7.40;99.90
20594;DHT22;10455;48.732;10.266;2024-02-15T04:46:39;7.40;99.90
20594;DHT22;10455;48.732;10.266;2024-02-15T04:51:41;7.40;99.90
20594;DHT22;10455;48.732;10.266;2024-02-15T04:56:45;7.40;99.90
20594;DHT22;10455;48.732;10.266;2024-02-15T05:01:47;7.50;99.90
20594;DHT22;10455;48.732;10.266;2024-02-15T05:06:50;7.40;99.90
20594;DHT22;10455;48.732;10.266;2024-02-15T05:11:53;7.50;99.90
20594;DHT22;10455;48.732;10.266;2024-02-15T05:16:55;7.60;99.90
20594;DHT22;10455;48.732;10.266;2024-02-15T05:21:57;7.80;99.90
20594;DHT22;10455;48.732;10.266;2024-02-15T05:27:00;7.90;99.90
20594;DHT22;10455;48.732;10.266;2024-02-15T05:32:03;8.10;99.90
20594;DHT22;10455;48.732;10.266;2024-02-15T05:37:06;8.10;99.90
20594;DHT22;10455;48.732;10.266;2024-02-15T05:42:09;8.10;99.90
20594;DHT22;10455;48.732;10.266;2024-02-15T05:47:11;8.10;99.90
20594;DHT22;10455;48.732;10.266;2024-02-15T05:52:13;8.10;99.90
20594;DHT22;10455;48.732;10.266;2024-02-15T05:57:17;8.10;99.90
20594;DHT22;10455;48.732;10.266;2024-02-15T06:02:19;8.00;99.90
20594;DHT22;10455;48.732;10.266;2024-02-15T06:07:20;7.80;99.90
20594;DHT22;10455;48.732;10.266;2024-02-15T06:12:24;7.60;99.90
20594;DHT22;10455;48.732;10.266;2024-02-15T06:17:25;7.30;99.90
20594;DHT22;10455;48.732;10.266;2024-02-15T06:22:27;7.00;99.90
20594;DHT22;10455;48.732;10.266;2024-02-15T06:27:33;6.70;99.90
20594;DHT22;10455;48.732;10.266;2024-02-15T06:32:37;6.50;99.90
20594;DHT22;10455;48.732;10.266;2024-02-15T06:37:56;6.30;99.90
20594;DHT22;10455;48.732;10.266;2024-02-15T06:43:17;6.30;99.90
20594;DHT22;10455;48.732;10.266;2024-02-15T06:48:19;6.50;99.90
20594;DHT22;10455;48.732;10.266;2024-02-15T06:53:21;6.80;99.90
20594;DHT22;10455;48.732;10.266;2024-02-15T06:58:24;6.90;99.90
20594;DHT22;10455;48.732;10.266;2024-02-15T07:03:28;7.00;99.90
20594;DHT22;10455;48.732;10.266;2024-02-15T07:08:32;7.20;99.90
20594;DHT22;10455;48.732;10.266;2024-02-15T07:13:36;7.20;99.90
20594;DHT22;10455;48.732;10.266;2024-02-15T07:18:38;7.40;99.90
20594;DHT22;10455;48.732;10.266;2024-02-15T07:23:40;7.70;99.90
20594;DHT22;10455;48.732;10.266;2024-02-15T07:28:45;8.00;99.90
20594;DHT22;10455;48.732;10.266;2024-02-15T07:33:50;7.70;99.90
20594;DHT22;10455;48.732;10.266;2024-02-15T07:38:54;8.20;99.90
20594;DHT22;10455;48.732;10.266;2024-02-15T07:43:59;8.60;99.90
20594;DHT22;10455;48.732;10.266;2024-02-15T07:49:01;9.30;99.90
20594;DHT22;10455;48.732;10.266;2024-02-15T07:54:03;9.50;99.90
20594;DHT22;10455;48.732;10.266;2024-02-15T07:59:08;9.40;99.90
20594;DHT22;10455;48.732;10.266;2024-02-15T08:04:09;9.40;99.90
20594;DHT22;10455;48.732;10.266;2024-02-15T08:09:12;9.60;99.90
20594;DHT22;10455;48.732;10.266;2024-02-15T08:14:15;10.20;99.90
20594;DHT22;10455;48.732;10.266;2024-02-15T08:19:17;9.70;99.90
20594;DHT22;10455;48.732;10.266;2024-02-15T08:24:19;9.50;99.90
20594;DHT22;10455;48.732;10.266;2024-02-15T08:29:22;9.30;99.90
20594;DHT22;10455;48.732;10.266;2024-02-15T08:34:24;9.70;99.90
20594;DHT22;10455;48.732;10.266;2024-02-15T08:39:26;10.00;99.90
20594;DHT22;10455;48.732;10.266;2024-02-15T08:44:29;10.00;99.90
20594;DHT22;10455;48.732;10.266;2024-02-15T08:49:31;10.20;99.90
20594;DHT22;10455;48.732;10.266;2024-02-15T08:54:33;10.50;99.90
20594;DHT22;10455;48.732;10.266;2024-02-15T08:59:36;10.80;99.90
20594;DHT22;10455;48.732;10.266;2024-02-15T09:04:38;11.20;99.90
20594;DHT22;10455;48.732;10.266;2024-02-15T09:09:41;11.50;99.90
20594;DHT22;10455;48.732;10.266;2024-02-15T09:14:44;11.10;99.90
20594;DHT22;10455;48.732;10.266;2024-02-15T09:19:47;11.50;99.90
20594;DHT22;10455;48.732;10.266;2024-02-15T09:24:50;13.90;99.90
20594;DHT22;10455;48.732;10.266;2024-02-15T09:29:54;17.10;99.90
20594;DHT22;10455;48.732;10.266;2024-02-15T09:45:08;20.20;99.90
20594;DHT22;10455;48.732;10.266;2024-02-15T09:50:12;19.00;99.90
20594;DHT22;10455;48.732;10.266;2024-02-15T09:55:14;19.30;99.90
20594;DHT22;10455;48.732;10.266;2024-02-15T10:00:19;19.20;99.90
20594;DHT22;10455;48.732;10.266;2024-02-15T10:05:21;19.00;99.90
20594;DHT22;10455;48.732;10.266;2024-02-15T10:10:24;19.30;99.90
20594;DHT22;10455;48.732;10.266;2024-02-15T10:15:33;18.30;99.90
20594;DHT22;10455;48.732;10.266;2024-02-15T10:20:36;16.40;99.90
20594;DHT22;10455;48.732;10.266;2024-02-15T10:25:40;15.50;99.90
20594;DHT22;10455;48.732;10.266;2024-02-15T10:30:44;15.60;99.90
20594;DHT22;10455;48.732;10.266;2024-02-15T10:35:48;17.40;99.90
20594;DHT22;10455;48.732;10.266;2024-02-15T10:41:02;19.40;99.90
20594;DHT22;10455;48.732;10.266;2024-02-15T10:46:06;19.30;99.90
20594;DHT22;10455;48.732;10.266;2024-02-15T10:51:13;18.20;99.90
20594;DHT22;10455;48.732;10.266;2024-02-15T10:56:19;19.30;99.90
20594;DHT22;10455;48.732;10.266;2024-02-15T11:01:27;19.00;99.90
20594;DHT22;10455;48.732;10.266;2024-02-15T11:06:35;18.60;99.90
20594;DHT22;10455;48.732;10.266;2024-02-15T11:11:37;17.60;99.90
20594;DHT22;10455;48.732;10.266;2024-02-15T11:16:42;17.90;99.90
20594;DHT22;10455;48.732;10.266;2024-02-15T11:21:53;17.20;99.90
20594;DHT22;10455;48.732;10.266;2024-02-15T11:26:58;17.90;99.90
20594;DHT22;10455;48.732;10.266;2024-02-15T11:32:05;17.30;99.90
20594;DHT22;10455;48.732;10.266;2024-02-15T11:37:07;17.10;99.90
20594;DHT22;10455;48.732;10.266;2024-02-15T11:42:30;18.50;99.90
20594;DHT22;10455;48.732;10.266;2024-02-15T11:47:37;18.00;99.90
20594;DHT22;10455;48.732;10.266;2024-02-15T11:52:40;17.60;99.90
20594;DHT22;10455;48.732;10.266;2024-02-15T11:57:42;17.60;99.90
20594;DHT22;10455;48.732;10.266;2024-02-15T12:02:52;17.20;99.90
20594;DHT22;10455;48.732;10.266;2024-02-15T12:08:11;16.00;99.90
20594;DHT22;10455;48.732;10.266;2024-02-15T12:13:31;15.70;99.90
20594;DHT22;10455;48.732;10.266;2024-02-15T12:18:51;16.30;99.90
20594;DHT22;10455;48.732;10.266;2024-02-15T12:23:54;16.70;99.90
20594;DHT22;10455;48.732;10.266;2024-02-15T12:28:57;16.50;99.90
20594;DHT22;10455;48.732;10.266;2024-02-15T12:34:01;17.00;99.90
20594;DHT22;10455;48.732;10.266;2024-02-15T12:39:07;18.00;99.90
20594;DHT22;10455;48.732;10.266;2024-02-15T12:44:16;18.70;99.90
20594;DHT22;10455;48.732;10.266;2024-02-15T12:49:29;19.30;99.90
20594;DHT22;10455;48.732;10.266;2024-02-15T12:54:32;19.60;99.90
20594;DHT22;10455;48.732;10.266;2024-02-15T12:59:34;19.20;99.90
20594;DHT22;10455;48.732;10.266;2024-02-15T13:04:39;18.90;99.90
20594;DHT22;10455;48.732;10.266;2024-02-15T13:09:40;20.60;99.90
20594;DHT22;10455;48.732;10.266;2024-02-15T13:14:43;19.50;99.90
20594;DHT22;10455;48.732;10.266;2024-02-15T13:19:47;19.80;99.90
20594;DHT22;10455;48.732;10.266;2024-02-15T13:24:49;20.60;99.90
20594;DHT22;10455;48.732;10.266;2024-02-15T13:29:51;21.50;99.90
20594;DHT22;10455;48.732;10.266;2024-02-15T13:34:55;19.90;99.90
20594;DHT22;10455;48.732;10.266;2024-02-15T13:40:00;20.40;99.90
20594;DHT22;10455;48.732;10.266;2024-02-15T13:45:02;20.90;99.90
20594;DHT22;10455;48.732;10.266;2024-02-15T13:50:06;20.40;99.90
20594;DHT22;10455;48.732;10.266;2024-02-15T13:55:08;19.30;99.90
20594;DHT22;10455;48.732;10.266;2024-02-15T14:00:13;18.40;99.90
20594;DHT22;10455;48.732;10.266;2024-02-15T14:05:24;18.40;99.90
20594;DHT22;10455;48.732;10.266;2024-02-15T14:10:29;18.40;99.90
20594;DHT22;10455;48.732;10.266;2024-02-15T14:15:32;17.90;99.90
20594;DHT22;10455;48.732;10.266;2024-02-15T14:20:39;18.30;99.90
20594;DHT22;10455;48.732;10.266;2024-02-15T14:25:43;18.30;99.90
20594;DHT22;10455;48.732;10.266;2024-02-15T14:30:46;18.10;99.90
20594;DHT22;10455;48.732;10.266;2024-02-15T14:36:07;17.70;99.90
20594;DHT22;10455;48.732;10.266;2024-02-15T14:41:09;17.20;99.90
20594;DHT22;10455;48.732;10.266;2024-02-15T14:46:11;17.30;99.90
20594;DHT22;10455;48.732;10.266;2024-02-15T14:51:16;17.20;99.90
20594;DHT22;10455;48.732;10.266;2024-02-15T14:56:19;16.70;99.90
20594;DHT22;10455;48.732;10.266;2024-02-15T15:01:21;16.20;99.90
20594;DHT22;10455;48.732;10.266;2024-02-15T15:06:26;16.10;99.90
20594;DHT22;10455;48.732;10.266;2024-02-15T15:11:45;15.50;99.90
20594;DHT22;10455;48.732;10.266;2024-02-15T15:17:04;15.30;99.90
20594;DHT22;10455;48.732;10.266;2024-02-15T15:22:08;14.70;99.90
20594;DHT22;10455;48.732;10.266;2024-02-15T15:27:10;14.90;99.90
20594;DHT22;10455;48.732;10.266;2024-02-15T15:32:13;14.80;99.90
20594;DHT22;10455;48.732;10.266;2024-02-15T15:37:16;14.60;99.90
20594;DHT22;10455;48.732;10.266;2024-02-15T15:42:18;14.60;99.90
20594;DHT22;10455;48.732;10.266;2024-02-15T15:47:20;14.40;99.90
20594;DHT22;10455;48.732;10.266;2024-02-15T15:52:24;14.40;99.90
20594;DHT22;10455;48.732;10.266;2024-02-15T15:57:26;14.30;99.90
20594;DHT22;10455;48.732;10.266;2024-02-15T16:02:28;14.10;99.90
20594;DHT22;10455;48.732;10.266;2024-02-15T16:07:32;14.10;99.90
20594;DHT22;10455;48.732;10.266;2024-02-15T16:12:34;14.00;99.90
20594;DHT22;10455;48.732;10.266;2024-02-15T16:17:36;13.80;99.90
20594;DHT22;10455;48.732;10.266;2024-02-15T16:22:41;13.50;99.90
20594;DHT22;10455;48.732;10.266;2024-02-15T16:27:43;13.20;99.90
20594;DHT22;10455;48.732;10.266;2024-02-15T16:32:46;12.80;99.90
20594;DHT22;10455;48.732;10.266;2024-02-15T16:37:50;12.50;99.90
20594;DHT22;10455;48.732;10.266;2024-02-15T16:42:53;12.30;99.90
20594;DHT22;10455;48.732;10.266;2024-02-15T16:47:58;12.10;99.90
20594;DHT22;10455;48.732;10.266;2024-02-15T16:53:02;12.00;99.90
20594;DHT22;10455;48.732;10.266;2024-02-15T16:58:04;12.00;99.90
20594;DHT22;10455;48.732;10.266;2024-02-15T17:03:08;11.80;99.90
20594;DHT22;10455;48.732;10.266;2024-02-15T17:08:15;11.50;99.90
20594;DHT22;10455;48.732;10.266;2024-02-15T17:13:17;11.40;99.90
20594;DHT22;10455;48.732;10.266;2024-02-15T17:18:19;11.20;99.90
20594;DHT22;10455;48.732;10.266;2024-02-15T17:23:23;11.00;99.90
20594;DHT22;10455;48.732;10.266;2024-02-15T17:28:25;10.80;99.90
20594;DHT22;10455;48.732;10.266;2024-02-15T17:33:27;10.30;99.90
20594;DHT22;10455;48.732;10.266;2024-02-15T17:38:30;10.20;99.90
20594;DHT22;10455;48.732;10.266;2024-02-15T17:43:33;10.00;99.90
20594;DHT22;10455;48.732;10.266;2024-02-15T17:48:36;9.80;99.90
20594;DHT22;10455;48.732;10.266;2024-02-15T17:53:39;9.60;99.90
20594;DHT22;10455;48.732;10.266;2024-02-15T17:58:42;9.40;99.90
20594;DHT22;10455;48.732;10.266;2024-02-15T18:03:44;9.30;99.90
20594;DHT22;10455;48.732;10.266;2024-02-15T18:08:48;9.10;99.90
20594;DHT22;10455;48.732;10.266;2024-02-15T18:13:50;8.90;99.90
20594;DHT22;10455;48.732;10.266;2024-02-15T18:18:52;9.00;99.90
20594;DHT22;10455;48.732;10.266;2024-02-15T18:23:57;9.10;99.90
20594;DHT22;10455;48.732;10.266;2024-02-15T18:29:00;9.30;99.90
20594;DHT22;10455;48.732;10.266;2024-02-15T18:34:02;9.40;99.90
20594;DHT22;10455;48.732;10.266;2024-02-15T18:39:08;9.60;99.90
20594;DHT22;10455;48.732;10.266;2024-02-15T18:44:11;9.80;99.90
20594;DHT22;10455;48.732;10.266;2024-02-15T18:49:12;9.70;99.90
20594;DHT22;10455;48.732;10.266;2024-02-15T18:54:16;9.80;99.90
20594;DHT22;10455;48.732;10.266;2024-02-15T18:59:19;9.80;99.90
20594;DHT22;10455;48.732;10.266;2024-02-15T19:04:21;9.90;99.90
20594;DHT22;10455;48.732;10.266;2024-02-15T19:09:24;9.80;99.90
20594;DHT22;10455;48.732;10.266;2024-02-15T19:14:26;9.30;99.90
20594;DHT22;10455;48.732;10.266;2024-02-15T19:19:28;8.70;99.90
20594;DHT22;10455;48.732;10.266;2024-02-15T19:24:31;8.30;99.90
20594;DHT22;10455;48.732;10.266;2024-02-15T19:29:33;8.10;99.90
20594;DHT22;10455;48.732;10.266;2024-02-15T19:34:35;8.00;99.90
20594;DHT22;10455;48.732;10.266;2024-02-15T19:39:38;7.90;99.90
20594;DHT22;10455;48.732;10.266;2024-02-15T19:44:41;7.90;99.90
20594;DHT22;10455;48.732;10.266;2024-02-15T19:49:45;7.90;99.90
20594;DHT22;10455;48.732;10.266;2024-02-15T19:54:48;7.80;99.90
20594;DHT22;10455;48.732;10.266;2024-02-15T19:59:50;7.70;99.90
20594;DHT22;10455;48.732;10.266;2024-02-15T20:04:53;8.00;99.90
20594;DHT22;10455;48.732;10.266;2024-02-15T20:09:56;8.20;99.90
20594;DHT22;10455;48.732;10.266;2024-02-15T20:14:58;8.40;99.90
20594;DHT22;10455;48.732;10.266;2024-02-15T20:42:08;9.70;99.90
20594;DHT22;10455;48.732;10.266;2024-02-15T20:47:10;9.00;99.90
20594;DHT22;10455;48.732;10.266;2024-02-15T20:52:14;8.40;99.90
20594;DHT22;10455;48.732;10.266;2024-02-15T20:57:24;8.60;99.90
20594;DHT22;10455;48.732;10.266;2024-02-15T21:12:40;7.30;99.90
20594;DHT22;10455;48.732;10.266;2024-02-15T21:18:00;7.30;99.90
20594;DHT22;10455;48.732;10.266;2024-02-15T21:23:04;7.20;99.90
20594;DHT22;10455;48.732;10.266;2024-02-15T21:28:06;6.90;99.90
20594;DHT22;10455;48.732;10.266;2024-02-15T21:33:08;6.70;99.90
20594;DHT22;10455;48.732;10.266;2024-02-15T21:38:11;6.60;99.90
20594;DHT22;10455;48.732;10.266;2024-02-15T21:43:13;6.40;99.90
20594;DHT22;10455;48.732;10.266;2024-02-15T21:48:16;6.30;99.90
20594;DHT22;10455;48.732;10.266;2024-02-15T21:53:20;6.40;99.90
20594;DHT22;10455;48.732;10.266;2024-02-15T21:58:22;6.30;99.90
20594;DHT22;10455;48.732;10.266;2024-02-15T22:03:24;6.10;99.90
20594;DHT22;10455;48.732;10.266;2024-02-15T22:08:27;6.10;99.90
20594;DHT22;10455;48.732;10.266;2024-02-15T22:13:29;6.00;99.90
20594;DHT22;10455;48.732;10.266;2024-02-15T22:18:33;5.80;99.90
20594;DHT22;10455;48.732;10.266;2024-02-15T22:23:36;5.80;99.90
20594;DHT22;10455;48.732;10.266;2024-02-15T22:28:40;5.70;99.90
20594;DHT22;10455;48.732;10.266;2024-02-15T22:33:42;5.70;99.90
20594;DHT22;10455;48.732;10.266;2024-02-15T22:38:46;5.80;99.90
20594;DHT22;10455;48.732;10.266;2024-02-15T22:43:48;5.60;99.90
20594;DHT22;10455;48.732;10.266;2024-02-15T22:48:50;5.60;99.90
20594;DHT22;10455;48.732;10.266;2024-02-15T22:53:54;5.60;99.90
20594;DHT22;10455;48.732;10.266;2024-02-15T22:58:55;5.50;99.90
20594;DHT22;10455;48.732;10.266;2024-02-15T23:03:57;5.40;99.90
20594;DHT22;10455;48.732;10.266;2024-02-15T23:09:00;5.20;99.90
20594;DHT22;10455;48.732;10.266;2024-02-15T23:14:02;5.10;99.90
20594;DHT22;10455;48.732;10.266;2024-02-15T23:19:06;5.10;99.90
20594;DHT22;10455;48.732;10.266;2024-02-15T23:24:11;5.00;99.90
20594;DHT22;10455;48.732;10.266;2024-02-15T23:29:13;5.00;99.90
20594;DHT22;10455;48.732;10.266;2024-02-15T23:34:16;4.70;99.90
20594;DHT22;10455;48.732;10.266;2024-02-15T23:39:19;4.80;99.90
20594;DHT22;10455;48.732;10.266;2024-02-15T23:44:47;4.90;99.90
20594;DHT22;10455;48.732;10.266;2024-02-15T23:49:49;5.00;99.90
20594;DHT22;10455;48.732;10.266;2024-02-15T23:54:52;5.10;99.90
20594;DHT22;10455;48.732;10.266;2024-02-15T23:59:54;5.20;99.90
